sensor_id;sensor_type;location;lat;lon;timestamp;temperature;humidity
43225;DHT22;28834;48.720;9.208;2022-07-05T00:00:44;17.70;99.90
43225;DHT22;28834;48.720;9.208;2022-07-05T00:03:10;17.70;99.90
43225;DHT22;28834;48.720;9.208;2022-07-05T00:05:37;17.60;99.90
43225;DHT22;28834;48.720;9.208;2022-07-05T00:08:03;17.50;99.90
43225;DHT22;28834;48.720;9.208;2022-07-05T00:10:29;17.50;99.90
43225;DHT22;28834;48.720;9.208;2022-07-05T00:12:54;17.50;99.90
43225;DHT22;28834;48.720;9.208;2022-07-05T00:15:20;17.40;99.90
43225;DHT22;28834;48.720;9.208;2022-07-05T00:17:45;17.50;99.90
43225;DHT22;28834;48.720;9.208;2022-07-05T00:20:11;17.50;99.90
43225;DHT22;28834;48.720;9.208;2022-07-05T00:22:36;17.40;99.90
43225;DHT22;28834;48.720;9.208;2022-07-05T00:25:02;17.40;99.90
43225;DHT22;28834;48.720;9.208;2022-07-05T00:27:28;17.40;99.90
43225;DHT22;28834;48.720;9.208;2022-07-05T00:29:54;17.30;99.90
43225;DHT22;28834;48.720;9.208;2022-07-05T00:32:19;17.20;99.90
43225;DHT22;28834;48.720;9.208;2022-07-05T00:34:45;17.20;99.90
43225;DHT22;28834;48.720;9.208;2022-07-05T00:37:10;17.10;99.90
43225;DHT22;28834;48.720;9.208;2022-07-05T00:39:36;17.00;99.90
43225;DHT22;28834;48.720;9.208;2022-07-05T00:42:02;17.00;99.90
43225;DHT22;28834;48.720;9.208;2022-07-05T00:44:30;17.00;99.90
43225;DHT22;28834;48.720;9.208;2022-07-05T00:46:56;17.00;99.90
43225;DHT22;28834;48.720;9.208;2022-07-05T00:49:22;17.00;99.90
43225;DHT22;28834;48.720;9.208;2022-07-05T00:51:48;16.90;99.90
43225;DHT22;28834;48.720;9.208;2022-07-05T00:54:13;16.90;99.90
43225;DHT22;28834;48.720;9.208;2022-07-05T00:56:39;16.90;99.90
43225;DHT22;28834;48.720;9.208;2022-07-05T00:59:04;16.90;99.90
43225;DHT22;28834;48.720;9.208;2022-07-05T01:01:30;16.90;99.90
43225;DHT22;28834;48.720;9.208;2022-07-05T01:03:56;17.00;99.90
43225;DHT22;28834;48.720;9.208;2022-07-05T01:06:23;17.00;99.90
43225;DHT22;28834;48.720;9.208;2022-07-05T01:08:49;17.00;99.90
43225;DHT22;28834;48.720;9.208;2022-07-05T01:11:15;17.00;99.90
43225;DHT22;28834;48.720;9.208;2022-07-05T01:13:41;16.80;99.90
43225;DHT22;28834;48.720;9.208;2022-07-05T01:16:06;16.80;99.90
43225;DHT22;28834;48.720;9.208;2022-07-05T01:18:33;16.70;99.90
43225;DHT22;28834;48.720;9.208;2022-07-05T01:21:01;16.60;99.90
43225;DHT22;28834;48.720;9.208;2022-07-05T01:23:31;16.60;99.90
43225;DHT22;28834;48.720;9.208;2022-07-05T01:25:58;16.50;99.90
43225;DHT22;28834;48.720;9.208;2022-07-05T01:28:25;16.50;99.90
43225;DHT22;28834;48.720;9.208;2022-07-05T01:30:51;16.40;99.90
43225;DHT22;28834;48.720;9.208;2022-07-05T01:33:17;16.40;99.90
43225;DHT22;28834;48.720;9.208;2022-07-05T01:35:42;16.30;99.90
43225;DHT22;28834;48.720;9.208;2022-07-05T01:38:11;16.30;99.90
43225;DHT22;28834;48.720;9.208;2022-07-05T01:40:37;16.30;99.90
43225;DHT22;28834;48.720;9.208;2022-07-05T01:43:03;16.30;99.90
43225;DHT22;28834;48.720;9.208;2022-07-05T01:45:29;16.30;99.90
43225;DHT22;28834;48.720;9.208;2022-07-05T01:48:12;16.20;99.90
43225;DHT22;28834;48.720;9.208;2022-07-05T01:50:48;16.20;99.90
43225;DHT22;28834;48.720;9.208;2022-07-05T01:53:17;16.20;99.90
43225;DHT22;28834;48.720;9.208;2022-07-05T01:55:44;16.20;99.90
43225;DHT22;28834;48.720;9.208;2022-07-05T01:58:10;16.20;99.90
43225;DHT22;28834;48.720;9.208;2022-07-05T02:00:47;16.20;99.90
43225;DHT22;28834;48.720;9.208;2022-07-05T02:03:13;16.30;99.90
43225;DHT22;28834;48.720;9.208;2022-07-05T02:05:39;16.30;99.90
43225;DHT22;28834;48.720;9.208;2022-07-05T02:08:05;16.30;99.90
43225;DHT22;28834;48.720;9.208;2022-07-05T02:10:30;16.30;99.90
43225;DHT22;28834;48.720;9.208;2022-07-05T02:12:56;16.30;99.90
43225;DHT22;28834;48.720;9.208;2022-07-05T02:15:21;16.20;99.90
43225;DHT22;28834;48.720;9.208;2022-07-05T02:17:47;16.20;99.90
43225;DHT22;28834;48.720;9.208;2022-07-05T02:20:12;16.10;99.90
43225;DHT22;28834;48.720;9.208;2022-07-05T02:22:38;16.00;99.90
43225;DHT22;28834;48.720;9.208;2022-07-05T02:25:04;16.10;99.90
43225;DHT22;28834;48.720;9.208;2022-07-05T02:27:29;16.10;99.90
43225;DHT22;28834;48.720;9.208;2022-07-05T02:29:55;16.00;99.90
43225;DHT22;28834;48.720;9.208;2022-07-05T02:32:20;16.00;99.90
43225;DHT22;28834;48.720;9.208;2022-07-05T02:34:46;15.90;99.90
43225;DHT22;28834;48.720;9.208;2022-07-05T02:37:11;15.90;99.90
43225;DHT22;28834;48.720;9.208;2022-07-05T02:39:37;15.90;99.90
43225;DHT22;28834;48.720;9.208;2022-07-05T02:42:03;15.90;99.90
43225;DHT22;28834;48.720;9.208;2022-07-05T02:44:28;15.80;99.90
43225;DHT22;28834;48.720;9.208;2022-07-05T02:46:54;15.70;99.90
43225;DHT22;28834;48.720;9.208;2022-07-05T02:49:19;15.60;99.90
43225;DHT22;28834;48.720;9.208;2022-07-05T02:51:45;15.60;99.90
43225;DHT22;28834;48.720;9.208;2022-07-05T02:54:10;15.50;99.90
43225;DHT22;28834;48.720;9.208;2022-07-05T02:56:36;15.50;99.90
43225;DHT22;28834;48.720;9.208;2022-07-05T02:59:02;15.40;99.90
43225;DHT22;28834;48.720;9.208;2022-07-05T03:01:27;15.40;99.90
43225;DHT22;28834;48.720;9.208;2022-07-05T03:03:53;15.40;99.90
43225;DHT22;28834;48.720;9.208;2022-07-05T03:06:19;15.50;99.90
43225;DHT22;28834;48.720;9.208;2022-07-05T03:08:44;15.50;99.90
43225;DHT22;28834;48.720;9.208;2022-07-05T03:11:10;15.40;99.90
43225;DHT22;28834;48.720;9.208;2022-07-05T03:13:35;15.40;99.90
43225;DHT22;28834;48.720;9.208;2022-07-05T03:16:01;15.30;99.90
43225;DHT22;28834;48.720;9.208;2022-07-05T03:18:27;15.30;99.90
43225;DHT22;28834;48.720;9.208;2022-07-05T03:20:52;15.20;99.90
43225;DHT22;28834;48.720;9.208;2022-07-05T03:23:18;15.30;99.90
43225;DHT22;28834;48.720;9.208;2022-07-05T03:25:43;15.30;99.90
43225;DHT22;28834;48.720;9.208;2022-07-05T03:28:09;15.30;99.90
43225;DHT22;28834;48.720;9.208;2022-07-05T03:30:34;15.20;99.90
43225;DHT22;28834;48.720;9.208;2022-07-05T03:33:00;15.20;99.90
43225;DHT22;28834;48.720;9.208;2022-07-05T03:35:27;15.20;99.90
43225;DHT22;28834;48.720;9.208;2022-07-05T03:37:52;15.30;99.90
43225;DHT22;28834;48.720;9.208;2022-07-05T03:40:18;15.30;99.90
43225;DHT22;28834;48.720;9.208;2022-07-05T03:42:43;15.30;99.90
43225;DHT22;28834;48.720;9.208;2022-07-05T03:45:09;15.30;99.90
43225;DHT22;28834;48.720;9.208;2022-07-05T03:47:35;15.30;99.90
43225;DHT22;28834;48.720;9.208;2022-07-05T03:50:01;15.30;99.90
43225;DHT22;28834;48.720;9.208;2022-07-05T03:52:27;15.30;99.90
43225;DHT22;28834;48.720;9.208;2022-07-05T03:54:52;15.50;99.90
43225;DHT22;28834;48.720;9.208;2022-07-05T03:57:18;15.50;99.90
43225;DHT22;28834;48.720;9.208;2022-07-05T03:59:44;15.50;99.90
43225;DHT22;28834;48.720;9.208;2022-07-05T04:02:09;15.50;99.90
43225;DHT22;28834;48.720;9.208;2022-07-05T04:04:35;15.50;99.90
43225;DHT22;28834;48.720;9.208;2022-07-05T04:07:00;15.40;99.90
43225;DHT22;28834;48.720;9.208;2022-07-05T04:09:26;15.30;99.90
43225;DHT22;28834;48.720;9.208;2022-07-05T04:11:51;15.20;99.90
43225;DHT22;28834;48.720;9.208;2022-07-05T04:14:17;15.10;99.90
43225;DHT22;28834;48.720;9.208;2022-07-05T04:16:42;15.10;99.90
43225;DHT22;28834;48.720;9.208;2022-07-05T04:19:08;15.10;99.90
43225;DHT22;28834;48.720;9.208;2022-07-05T04:21:34;15.10;99.90
43225;DHT22;28834;48.720;9.208;2022-07-05T04:23:59;15.10;99.90
43225;DHT22;28834;48.720;9.208;2022-07-05T04:26:25;15.10;99.90
43225;DHT22;28834;48.720;9.208;2022-07-05T04:28:50;15.00;99.90
43225;DHT22;28834;48.720;9.208;2022-07-05T04:31:16;15.10;99.90
43225;DHT22;28834;48.720;9.208;2022-07-05T04:33:41;15.10;99.90
43225;DHT22;28834;48.720;9.208;2022-07-05T04:36:07;15.20;99.90
43225;DHT22;28834;48.720;9.208;2022-07-05T04:38:32;15.20;99.90
43225;DHT22;28834;48.720;9.208;2022-07-05T04:40:58;15.30;99.90
43225;DHT22;28834;48.720;9.208;2022-07-05T04:43:24;15.40;99.90
43225;DHT22;28834;48.720;9.208;2022-07-05T04:45:49;15.40;99.90
43225;DHT22;28834;48.720;9.208;2022-07-05T04:48:15;15.50;99.90
43225;DHT22;28834;48.720;9.208;2022-07-05T04:50:40;15.60;99.90
43225;DHT22;28834;48.720;9.208;2022-07-05T04:53:06;15.60;99.90
43225;DHT22;28834;48.720;9.208;2022-07-05T04:55:31;15.70;99.90
43225;DHT22;28834;48.720;9.208;2022-07-05T04:57:57;15.80;99.90
43225;DHT22;28834;48.720;9.208;2022-07-05T05:00:23;15.80;99.90
43225;DHT22;28834;48.720;9.208;2022-07-05T05:02:48;15.90;99.90
43225;DHT22;28834;48.720;9.208;2022-07-05T05:05:14;16.00;99.90
43225;DHT22;28834;48.720;9.208;2022-07-05T05:07:43;16.00;99.90
43225;DHT22;28834;48.720;9.208;2022-07-05T05:10:09;16.00;99.90
43225;DHT22;28834;48.720;9.208;2022-07-05T05:12:35;16.10;99.90
43225;DHT22;28834;48.720;9.208;2022-07-05T05:15:01;16.20;99.90
43225;DHT22;28834;48.720;9.208;2022-07-05T05:17:37;16.20;99.90
43225;DHT22;28834;48.720;9.208;2022-07-05T05:20:15;16.20;99.90
43225;DHT22;28834;48.720;9.208;2022-07-05T05:22:41;16.30;99.90
43225;DHT22;28834;48.720;9.208;2022-07-05T05:25:08;16.30;99.90
43225;DHT22;28834;48.720;9.208;2022-07-05T05:27:34;16.40;99.90
43225;DHT22;28834;48.720;9.208;2022-07-05T05:30:00;16.40;99.90
43225;DHT22;28834;48.720;9.208;2022-07-05T05:32:25;16.50;99.90
43225;DHT22;28834;48.720;9.208;2022-07-05T05:34:51;16.60;99.90
43225;DHT22;28834;48.720;9.208;2022-07-05T05:37:16;16.60;99.90
43225;DHT22;28834;48.720;9.208;2022-07-05T05:39:42;16.70;99.90
43225;DHT22;28834;48.720;9.208;2022-07-05T05:42:08;16.70;99.90
43225;DHT22;28834;48.720;9.208;2022-07-05T05:44:33;16.80;99.90
43225;DHT22;28834;48.720;9.208;2022-07-05T05:46:59;16.90;99.90
43225;DHT22;28834;48.720;9.208;2022-07-05T05:49:25;17.00;99.90
43225;DHT22;28834;48.720;9.208;2022-07-05T05:51:50;17.10;99.90
43225;DHT22;28834;48.720;9.208;2022-07-05T05:54:16;17.10;99.90
43225;DHT22;28834;48.720;9.208;2022-07-05T05:56:41;17.20;99.90
43225;DHT22;28834;48.720;9.208;2022-07-05T05:59:07;17.20;99.90
43225;DHT22;28834;48.720;9.208;2022-07-05T06:01:33;17.20;99.90
43225;DHT22;28834;48.720;9.208;2022-07-05T06:03:59;17.30;99.90
43225;DHT22;28834;48.720;9.208;2022-07-05T06:06:25;17.30;99.90
43225;DHT22;28834;48.720;9.208;2022-07-05T06:08:50;17.40;99.90
43225;DHT22;28834;48.720;9.208;2022-07-05T06:11:16;17.50;99.90
43225;DHT22;28834;48.720;9.208;2022-07-05T06:13:41;17.60;99.90
43225;DHT22;28834;48.720;9.208;2022-07-05T06:16:07;17.70;99.90
43225;DHT22;28834;48.720;9.208;2022-07-05T06:18:33;17.70;99.70
43225;DHT22;28834;48.720;9.208;2022-07-05T06:20:59;17.90;99.90
43225;DHT22;28834;48.720;9.208;2022-07-05T06:23:24;17.90;99.90
43225;DHT22;28834;48.720;9.208;2022-07-05T06:25:50;17.90;99.90
43225;DHT22;28834;48.720;9.208;2022-07-05T06:28:15;18.00;99.80
43225;DHT22;28834;48.720;9.208;2022-07-05T06:30:42;18.20;99.90
43225;DHT22;28834;48.720;9.208;2022-07-05T06:33:08;18.20;99.90
43225;DHT22;28834;48.720;9.208;2022-07-05T06:35:34;18.20;99.90
43225;DHT22;28834;48.720;9.208;2022-07-05T06:38:05;18.30;99.90
43225;DHT22;28834;48.720;9.208;2022-07-05T06:40:35;18.50;99.90
43225;DHT22;28834;48.720;9.208;2022-07-05T06:43:03;18.60;99.10
43225;DHT22;28834;48.720;9.208;2022-07-05T06:45:29;18.70;98.70
43225;DHT22;28834;48.720;9.208;2022-07-05T06:48:00;18.80;99.40
43225;DHT22;28834;48.720;9.208;2022-07-05T06:50:28;18.90;97.30
43225;DHT22;28834;48.720;9.208;2022-07-05T06:52:54;19.10;99.80
43225;DHT22;28834;48.720;9.208;2022-07-05T06:55:20;19.10;99.90
43225;DHT22;28834;48.720;9.208;2022-07-05T06:57:46;19.20;99.20
43225;DHT22;28834;48.720;9.208;2022-07-05T07:00:12;19.20;98.00
43225;DHT22;28834;48.720;9.208;2022-07-05T07:02:38;19.30;99.70
43225;DHT22;28834;48.720;9.208;2022-07-05T07:05:04;19.40;99.90
43225;DHT22;28834;48.720;9.208;2022-07-05T07:07:33;19.50;99.30
43225;DHT22;28834;48.720;9.208;2022-07-05T07:10:17;19.60;99.30
43225;DHT22;28834;48.720;9.208;2022-07-05T07:12:42;19.80;98.60
43225;DHT22;28834;48.720;9.208;2022-07-05T07:15:08;19.90;98.10
43225;DHT22;28834;48.720;9.208;2022-07-05T07:17:34;20.10;99.60
43225;DHT22;28834;48.720;9.208;2022-07-05T07:19:59;20.30;98.90
43225;DHT22;28834;48.720;9.208;2022-07-05T07:22:25;20.40;97.30
43225;DHT22;28834;48.720;9.208;2022-07-05T07:24:51;20.50;95.50
43225;DHT22;28834;48.720;9.208;2022-07-05T07:27:16;20.80;95.70
43225;DHT22;28834;48.720;9.208;2022-07-05T07:29:42;20.80;94.10
43225;DHT22;28834;48.720;9.208;2022-07-05T07:32:08;21.00;93.30
43225;DHT22;28834;48.720;9.208;2022-07-05T07:34:35;21.30;92.90
43225;DHT22;28834;48.720;9.208;2022-07-05T07:37:02;21.50;92.40
43225;DHT22;28834;48.720;9.208;2022-07-05T07:39:29;21.70;93.00
43225;DHT22;28834;48.720;9.208;2022-07-05T07:41:55;21.90;92.10
43225;DHT22;28834;48.720;9.208;2022-07-05T07:44:20;22.00;91.00
43225;DHT22;28834;48.720;9.208;2022-07-05T07:46:46;22.20;91.30
43225;DHT22;28834;48.720;9.208;2022-07-05T07:49:12;22.40;91.40
43225;DHT22;28834;48.720;9.208;2022-07-05T07:51:38;22.50;91.50
43225;DHT22;28834;48.720;9.208;2022-07-05T07:54:04;22.70;91.80
43225;DHT22;28834;48.720;9.208;2022-07-05T07:56:30;22.80;89.30
43225;DHT22;28834;48.720;9.208;2022-07-05T07:58:56;22.90;87.80
43225;DHT22;28834;48.720;9.208;2022-07-05T08:01:22;23.00;87.20
43225;DHT22;28834;48.720;9.208;2022-07-05T08:03:47;23.00;86.10
43225;DHT22;28834;48.720;9.208;2022-07-05T08:06:13;22.90;80.90
43225;DHT22;28834;48.720;9.208;2022-07-05T08:08:40;22.80;82.10
43225;DHT22;28834;48.720;9.208;2022-07-05T08:11:08;22.80;82.70
43225;DHT22;28834;48.720;9.208;2022-07-05T08:13:34;23.00;87.30
43225;DHT22;28834;48.720;9.208;2022-07-05T08:16:00;23.00;89.10
43225;DHT22;28834;48.720;9.208;2022-07-05T08:18:25;23.00;85.00
43225;DHT22;28834;48.720;9.208;2022-07-05T08:21:10;23.10;81.00
43225;DHT22;28834;48.720;9.208;2022-07-05T08:23:54;23.30;82.50
43225;DHT22;28834;48.720;9.208;2022-07-05T08:26:20;23.40;83.80
43225;DHT22;28834;48.720;9.208;2022-07-05T08:28:45;23.30;85.50
43225;DHT22;28834;48.720;9.208;2022-07-05T08:31:11;23.40;81.70
43225;DHT22;28834;48.720;9.208;2022-07-05T08:33:36;23.40;81.60
43225;DHT22;28834;48.720;9.208;2022-07-05T08:36:02;23.40;84.50
43225;DHT22;28834;48.720;9.208;2022-07-05T08:38:28;23.30;79.70
43225;DHT22;28834;48.720;9.208;2022-07-05T08:40:55;23.40;79.40
43225;DHT22;28834;48.720;9.208;2022-07-05T08:43:22;23.50;79.20
43225;DHT22;28834;48.720;9.208;2022-07-05T08:45:50;23.60;79.60
43225;DHT22;28834;48.720;9.208;2022-07-05T08:48:19;23.70;77.00
43225;DHT22;28834;48.720;9.208;2022-07-05T08:50:47;23.80;79.80
43225;DHT22;28834;48.720;9.208;2022-07-05T08:53:18;23.80;79.80
43225;DHT22;28834;48.720;9.208;2022-07-05T08:55:45;23.90;79.10
43225;DHT22;28834;48.720;9.208;2022-07-05T08:58:11;24.10;79.70
43225;DHT22;28834;48.720;9.208;2022-07-05T09:00:38;24.20;77.70
43225;DHT22;28834;48.720;9.208;2022-07-05T09:03:05;24.30;80.70
43225;DHT22;28834;48.720;9.208;2022-07-05T09:05:30;24.20;80.60
43225;DHT22;28834;48.720;9.208;2022-07-05T09:08:00;24.30;80.60
43225;DHT22;28834;48.720;9.208;2022-07-05T09:10:30;24.30;79.50
43225;DHT22;28834;48.720;9.208;2022-07-05T09:12:57;24.30;81.70
43225;DHT22;28834;48.720;9.208;2022-07-05T09:15:23;24.50;81.80
43225;DHT22;28834;48.720;9.208;2022-07-05T09:17:49;24.70;82.30
43225;DHT22;28834;48.720;9.208;2022-07-05T09:20:17;24.70;77.20
43225;DHT22;28834;48.720;9.208;2022-07-05T09:22:51;24.60;77.10
43225;DHT22;28834;48.720;9.208;2022-07-05T09:25:24;24.60;79.20
43225;DHT22;28834;48.720;9.208;2022-07-05T09:27:56;24.60;78.50
43225;DHT22;28834;48.720;9.208;2022-07-05T09:33:28;24.90;73.00
43225;DHT22;28834;48.720;9.208;2022-07-05T09:35:57;25.00;77.20
43225;DHT22;28834;48.720;9.208;2022-07-05T09:38:24;25.00;76.70
43225;DHT22;28834;48.720;9.208;2022-07-05T09:40:54;25.00;74.90
43225;DHT22;28834;48.720;9.208;2022-07-05T09:43:22;25.00;75.20
43225;DHT22;28834;48.720;9.208;2022-07-05T09:45:59;25.10;75.50
43225;DHT22;28834;48.720;9.208;2022-07-05T09:48:27;25.10;75.50
43225;DHT22;28834;48.720;9.208;2022-07-05T09:50:52;24.80;71.00
43225;DHT22;28834;48.720;9.208;2022-07-05T09:53:51;24.60;75.20
43225;DHT22;28834;48.720;9.208;2022-07-05T09:56:17;24.60;76.00
43225;DHT22;28834;48.720;9.208;2022-07-05T09:58:43;24.70;74.70
43225;DHT22;28834;48.720;9.208;2022-07-05T10:01:28;24.80;69.50
43225;DHT22;28834;48.720;9.208;2022-07-05T10:03:56;25.00;73.20
43225;DHT22;28834;48.720;9.208;2022-07-05T10:06:28;25.20;73.70
43225;DHT22;28834;48.720;9.208;2022-07-05T10:08:55;25.40;70.10
43225;DHT22;28834;48.720;9.208;2022-07-05T10:11:22;25.50;73.00
43225;DHT22;28834;48.720;9.208;2022-07-05T10:13:53;25.60;73.80
43225;DHT22;28834;48.720;9.208;2022-07-05T10:16:21;25.60;73.30
43225;DHT22;28834;48.720;9.208;2022-07-05T10:18:51;25.40;71.90
43225;DHT22;28834;48.720;9.208;2022-07-05T10:21:18;25.20;72.80
43225;DHT22;28834;48.720;9.208;2022-07-05T10:23:46;24.90;73.30
43225;DHT22;28834;48.720;9.208;2022-07-05T10:26:14;24.60;72.30
43225;DHT22;28834;48.720;9.208;2022-07-05T10:28:42;24.70;69.80
43225;DHT22;28834;48.720;9.208;2022-07-05T10:31:10;25.00;68.80
43225;DHT22;28834;48.720;9.208;2022-07-05T10:33:37;25.40;72.70
43225;DHT22;28834;48.720;9.208;2022-07-05T10:36:04;25.70;70.60
43225;DHT22;28834;48.720;9.208;2022-07-05T10:38:30;26.00;67.00
43225;DHT22;28834;48.720;9.208;2022-07-05T10:40:59;26.20;63.30
43225;DHT22;28834;48.720;9.208;2022-07-05T10:43:27;26.20;69.90
43225;DHT22;28834;48.720;9.208;2022-07-05T10:45:53;26.40;69.20
43225;DHT22;28834;48.720;9.208;2022-07-05T10:48:26;26.50;64.50
43225;DHT22;28834;48.720;9.208;2022-07-05T10:50:53;26.60;67.70
43225;DHT22;28834;48.720;9.208;2022-07-05T10:53:21;26.60;69.20
43225;DHT22;28834;48.720;9.208;2022-07-05T10:55:49;26.60;67.00
43225;DHT22;28834;48.720;9.208;2022-07-05T10:58:19;26.60;65.40
43225;DHT22;28834;48.720;9.208;2022-07-05T11:06:25;27.30;64.60
43225;DHT22;28834;48.720;9.208;2022-07-05T11:11:28;27.60;65.60
43225;DHT22;28834;48.720;9.208;2022-07-05T11:13:55;27.70;65.40
43225;DHT22;28834;48.720;9.208;2022-07-05T11:16:30;27.70;60.50
43225;DHT22;28834;48.720;9.208;2022-07-05T11:19:11;27.40;67.20
43225;DHT22;28834;48.720;9.208;2022-07-05T11:21:38;27.30;59.60
43225;DHT22;28834;48.720;9.208;2022-07-05T11:24:22;27.50;65.00
43225;DHT22;28834;48.720;9.208;2022-07-05T11:26:49;27.50;65.30
43225;DHT22;28834;48.720;9.208;2022-07-05T11:29:43;27.40;61.50
43225;DHT22;28834;48.720;9.208;2022-07-05T11:32:19;27.20;66.40
43225;DHT22;28834;48.720;9.208;2022-07-05T11:34:49;27.20;64.10
43225;DHT22;28834;48.720;9.208;2022-07-05T11:42:32;26.80;63.30
43225;DHT22;28834;48.720;9.208;2022-07-05T11:45:00;26.70;64.10
43225;DHT22;28834;48.720;9.208;2022-07-05T11:47:26;26.70;66.70
43225;DHT22;28834;48.720;9.208;2022-07-05T11:49:58;26.80;67.50
43225;DHT22;28834;48.720;9.208;2022-07-05T11:52:28;27.00;64.70
43225;DHT22;28834;48.720;9.208;2022-07-05T11:54:54;27.00;64.70
43225;DHT22;28834;48.720;9.208;2022-07-05T11:57:20;27.00;65.50
43225;DHT22;28834;48.720;9.208;2022-07-05T11:59:47;26.90;64.80
43225;DHT22;28834;48.720;9.208;2022-07-05T12:02:13;26.90;68.20
43225;DHT22;28834;48.720;9.208;2022-07-05T12:04:38;27.00;64.00
43225;DHT22;28834;48.720;9.208;2022-07-05T12:07:05;27.00;61.60
43225;DHT22;28834;48.720;9.208;2022-07-05T12:09:32;27.00;62.90
43225;DHT22;28834;48.720;9.208;2022-07-05T12:12:22;26.80;67.70
43225;DHT22;28834;48.720;9.208;2022-07-05T12:15:07;26.40;66.40
43225;DHT22;28834;48.720;9.208;2022-07-05T12:17:34;26.10;59.40
43225;DHT22;28834;48.720;9.208;2022-07-05T12:20:00;26.00;59.30
43225;DHT22;28834;48.720;9.208;2022-07-05T12:22:33;26.20;64.30
43225;DHT22;28834;48.720;9.208;2022-07-05T12:25:00;26.40;61.20
43225;DHT22;28834;48.720;9.208;2022-07-05T12:27:32;26.50;66.30
43225;DHT22;28834;48.720;9.208;2022-07-05T12:29:58;26.60;65.20
43225;DHT22;28834;48.720;9.208;2022-07-05T12:32:23;26.70;66.20
43225;DHT22;28834;48.720;9.208;2022-07-05T12:34:49;26.80;66.50
43225;DHT22;28834;48.720;9.208;2022-07-05T12:37:25;26.90;63.10
43225;DHT22;28834;48.720;9.208;2022-07-05T12:40:03;26.90;60.80
43225;DHT22;28834;48.720;9.208;2022-07-05T12:42:39;27.00;64.90
43225;DHT22;28834;48.720;9.208;2022-07-05T12:45:15;27.00;60.40
43225;DHT22;28834;48.720;9.208;2022-07-05T12:47:54;27.20;68.70
43225;DHT22;28834;48.720;9.208;2022-07-05T12:50:24;27.40;67.90
43225;DHT22;28834;48.720;9.208;2022-07-05T12:53:04;27.40;64.70
43225;DHT22;28834;48.720;9.208;2022-07-05T12:55:51;26.90;65.40
43225;DHT22;28834;48.720;9.208;2022-07-05T13:01:24;26.50;62.50
43225;DHT22;28834;48.720;9.208;2022-07-05T13:07:00;27.00;62.20
43225;DHT22;28834;48.720;9.208;2022-07-05T13:14:38;27.50;65.10
43225;DHT22;28834;48.720;9.208;2022-07-05T13:17:05;27.70;64.20
43225;DHT22;28834;48.720;9.208;2022-07-05T13:19:31;27.70;67.70
43225;DHT22;28834;48.720;9.208;2022-07-05T13:21:57;27.30;62.20
43225;DHT22;28834;48.720;9.208;2022-07-05T13:24:22;26.80;63.90
43225;DHT22;28834;48.720;9.208;2022-07-05T13:26:48;26.30;70.30
43225;DHT22;28834;48.720;9.208;2022-07-05T13:29:14;26.30;67.50
43225;DHT22;28834;48.720;9.208;2022-07-05T13:31:39;26.20;65.20
43225;DHT22;28834;48.720;9.208;2022-07-05T13:34:05;26.10;68.20
43225;DHT22;28834;48.720;9.208;2022-07-05T13:36:30;25.70;66.30
43225;DHT22;28834;48.720;9.208;2022-07-05T13:38:56;25.30;71.90
43225;DHT22;28834;48.720;9.208;2022-07-05T13:41:22;25.00;69.30
43225;DHT22;28834;48.720;9.208;2022-07-05T13:43:47;25.10;74.90
43225;DHT22;28834;48.720;9.208;2022-07-05T13:46:13;25.60;68.70
43225;DHT22;28834;48.720;9.208;2022-07-05T13:48:39;26.10;67.70
43225;DHT22;28834;48.720;9.208;2022-07-05T13:51:05;26.60;70.80
43225;DHT22;28834;48.720;9.208;2022-07-05T13:53:31;27.00;69.10
43225;DHT22;28834;48.720;9.208;2022-07-05T13:55:57;27.40;66.30
43225;DHT22;28834;48.720;9.208;2022-07-05T13:58:22;27.70;70.10
43225;DHT22;28834;48.720;9.208;2022-07-05T14:00:49;27.90;61.90
43225;DHT22;28834;48.720;9.208;2022-07-05T14:03:14;28.00;63.70
43225;DHT22;28834;48.720;9.208;2022-07-05T14:05:44;28.00;61.10
43225;DHT22;28834;48.720;9.208;2022-07-05T14:08:11;27.60;59.20
43225;DHT22;28834;48.720;9.208;2022-07-05T14:10:37;26.90;63.50
43225;DHT22;28834;48.720;9.208;2022-07-05T14:13:03;26.30;68.00
43225;DHT22;28834;48.720;9.208;2022-07-05T14:15:29;26.20;68.60
43225;DHT22;28834;48.720;9.208;2022-07-05T14:17:54;26.30;72.10
43225;DHT22;28834;48.720;9.208;2022-07-05T14:20:21;26.50;64.50
43225;DHT22;28834;48.720;9.208;2022-07-05T14:22:46;26.40;69.50
43225;DHT22;28834;48.720;9.208;2022-07-05T14:25:12;26.40;71.90
43225;DHT22;28834;48.720;9.208;2022-07-05T14:27:37;26.80;71.00
43225;DHT22;28834;48.720;9.208;2022-07-05T14:30:04;27.20;63.10
43225;DHT22;28834;48.720;9.208;2022-07-05T14:32:30;27.70;66.30
43225;DHT22;28834;48.720;9.208;2022-07-05T14:34:55;28.00;66.60
43225;DHT22;28834;48.720;9.208;2022-07-05T14:37:21;28.10;60.90
43225;DHT22;28834;48.720;9.208;2022-07-05T14:39:48;28.60;62.20
43225;DHT22;28834;48.720;9.208;2022-07-05T14:42:14;28.20;64.10
43225;DHT22;28834;48.720;9.208;2022-07-05T14:44:40;28.00;64.00
43225;DHT22;28834;48.720;9.208;2022-07-05T14:47:06;27.90;62.60
43225;DHT22;28834;48.720;9.208;2022-07-05T14:49:31;28.00;61.60
43225;DHT22;28834;48.720;9.208;2022-07-05T14:51:57;28.10;58.60
43225;DHT22;28834;48.720;9.208;2022-07-05T14:54:22;27.80;65.30
43225;DHT22;28834;48.720;9.208;2022-07-05T14:56:48;27.50;63.60
43225;DHT22;28834;48.720;9.208;2022-07-05T14:59:15;27.60;61.40
43225;DHT22;28834;48.720;9.208;2022-07-05T15:01:41;27.60;63.90
43225;DHT22;28834;48.720;9.208;2022-07-05T15:04:06;27.70;59.40
43225;DHT22;28834;48.720;9.208;2022-07-05T15:06:32;27.80;61.40
43225;DHT22;28834;48.720;9.208;2022-07-05T15:08:58;27.90;65.70
43225;DHT22;28834;48.720;9.208;2022-07-05T15:11:23;27.80;60.60
43225;DHT22;28834;48.720;9.208;2022-07-05T15:13:49;27.90;57.50
43225;DHT22;28834;48.720;9.208;2022-07-05T15:16:15;27.90;60.10
43225;DHT22;28834;48.720;9.208;2022-07-05T15:18:40;27.80;63.10
43225;DHT22;28834;48.720;9.208;2022-07-05T15:21:06;27.60;58.30
43225;DHT22;28834;48.720;9.208;2022-07-05T15:23:33;27.30;60.40
43225;DHT22;28834;48.720;9.208;2022-07-05T15:25:58;27.10;61.50
43225;DHT22;28834;48.720;9.208;2022-07-05T15:28:24;26.80;63.40
43225;DHT22;28834;48.720;9.208;2022-07-05T15:30:49;26.50;66.60
43225;DHT22;28834;48.720;9.208;2022-07-05T15:33:17;26.00;65.60
43225;DHT22;28834;48.720;9.208;2022-07-05T15:35:43;25.50;68.60
43225;DHT22;28834;48.720;9.208;2022-07-05T15:38:09;25.20;65.00
43225;DHT22;28834;48.720;9.208;2022-07-05T15:40:34;25.10;65.60
43225;DHT22;28834;48.720;9.208;2022-07-05T15:43:00;24.90;70.90
43225;DHT22;28834;48.720;9.208;2022-07-05T15:45:26;24.70;64.80
43225;DHT22;28834;48.720;9.208;2022-07-05T15:47:51;24.60;73.10
43225;DHT22;28834;48.720;9.208;2022-07-05T15:50:17;24.40;72.40
43225;DHT22;28834;48.720;9.208;2022-07-05T15:52:42;24.30;72.40
43225;DHT22;28834;48.720;9.208;2022-07-05T15:55:09;24.30;70.30
43225;DHT22;28834;48.720;9.208;2022-07-05T15:57:35;24.30;74.70